sensor_id;sensor_type;location;lat;lon;timestamp;temperature;humidity
20858;DHT22;10589;53.636;10.012;2023-07-29T03:47:35;17.50;99.90
20858;DHT22;10589;53.636;10.012;2023-07-29T03:50:01;17.40;99.90
20858;DHT22;10589;53.636;10.012;2023-07-29T03:52:26;17.40;99.90
20858;DHT22;10589;53.636;10.012;2023-07-29T03:54:52;17.50;99.90
20858;DHT22;10589;53.636;10.012;2023-07-29T03:57:18;17.50;99.90
20858;DHT22;10589;53.636;10.012;2023-07-29T03:59:43;17.50;99.90
20858;DHT22;10589;53.636;10.012;2023-07-29T04:02:09;17.50;99.90
20858;DHT22;10589;53.636;10.012;2023-07-29T04:04:34;17.40;99.90
20858;DHT22;10589;53.636;10.012;2023-07-29T04:07:00;17.50;99.90
20858;DHT22;10589;53.636;10.012;2023-07-29T04:09:26;17.50;99.90
20858;DHT22;10589;53.636;10.012;2023-07-29T04:11:51;17.60;99.90
20858;DHT22;10589;53.636;10.012;2023-07-29T04:14:17;17.60;99.90
20858;DHT22;10589;53.636;10.012;2023-07-29T04:16:42;17.70;99.90
20858;DHT22;10589;53.636;10.012;2023-07-29T04:19:08;17.70;99.90
20858;DHT22;10589;53.636;10.012;2023-07-29T04:21:34;17.80;99.90
20858;DHT22;10589;53.636;10.012;2023-07-29T04:23:59;17.80;99.90
20858;DHT22;10589;53.636;10.012;2023-07-29T04:26:25;17.90;99.90
20858;DHT22;10589;53.636;10.012;2023-07-29T04:28:50;17.90;99.90
20858;DHT22;10589;53.636;10.012;2023-07-29T04:31:16;18.00;99.90
20858;DHT22;10589;53.636;10.012;2023-07-29T04:33:41;18.00;99.90
20858;DHT22;10589;53.636;10.012;2023-07-29T04:36:07;18.10;99.90
20858;DHT22;10589;53.636;10.012;2023-07-29T04:38:33;18.10;99.90
20858;DHT22;10589;53.636;10.012;2023-07-29T04:40:59;18.20;99.90
20858;DHT22;10589;53.636;10.012;2023-07-29T04:43:30;18.20;99.90
20858;DHT22;10589;53.636;10.012;2023-07-29T04:45:56;18.20;99.90
20858;DHT22;10589;53.636;10.012;2023-07-29T04:48:21;18.20;99.90
20858;DHT22;10589;53.636;10.012;2023-07-29T04:50:47;18.30;99.90
20858;DHT22;10589;53.636;10.012;2023-07-29T04:53:12;18.20;99.90
20858;DHT22;10589;53.636;10.012;2023-07-29T04:55:38;18.30;99.90
20858;DHT22;10589;53.636;10.012;2023-07-29T04:58:05;18.30;99.90
20858;DHT22;10589;53.636;10.012;2023-07-29T05:00:31;18.30;99.90
20858;DHT22;10589;53.636;10.012;2023-07-29T05:02:57;18.40;99.90
20858;DHT22;10589;53.636;10.012;2023-07-29T05:05:22;18.40;99.90
20858;DHT22;10589;53.636;10.012;2023-07-29T05:07:48;18.40;99.90
20858;DHT22;10589;53.636;10.012;2023-07-29T05:10:13;18.50;99.90
20858;DHT22;10589;53.636;10.012;2023-07-29T05:12:39;18.50;99.90
20858;DHT22;10589;53.636;10.012;2023-07-29T05:15:05;18.60;99.90
20858;DHT22;10589;53.636;10.012;2023-07-29T05:17:31;18.50;99.90
20858;DHT22;10589;53.636;10.012;2023-07-29T05:19:56;18.50;99.90
20858;DHT22;10589;53.636;10.012;2023-07-29T05:22:22;18.50;99.90
20858;DHT22;10589;53.636;10.012;2023-07-29T05:24:47;18.60;99.90
20858;DHT22;10589;53.636;10.012;2023-07-29T05:27:13;18.60;99.90
20858;DHT22;10589;53.636;10.012;2023-07-29T05:29:38;18.70;99.90
20858;DHT22;10589;53.636;10.012;2023-07-29T05:32:04;18.90;99.90
20858;DHT22;10589;53.636;10.012;2023-07-29T05:34:30;19.10;99.90
20858;DHT22;10589;53.636;10.012;2023-07-29T05:36:55;19.10;99.90
20858;DHT22;10589;53.636;10.012;2023-07-29T05:39:21;19.10;99.90
20858;DHT22;10589;53.636;10.012;2023-07-29T05:41:47;19.20;99.90
20858;DHT22;10589;53.636;10.012;2023-07-29T05:44:12;19.20;99.90
20858;DHT22;10589;53.636;10.012;2023-07-29T05:46:38;19.40;99.90
20858;DHT22;10589;53.636;10.012;2023-07-29T05:49:03;19.60;99.90
20858;DHT22;10589;53.636;10.012;2023-07-29T05:51:29;19.70;99.90
20858;DHT22;10589;53.636;10.012;2023-07-29T05:53:55;19.80;99.90
20858;DHT22;10589;53.636;10.012;2023-07-29T05:56:20;19.90;99.90
20858;DHT22;10589;53.636;10.012;2023-07-29T05:58:46;20.00;99.90
20858;DHT22;10589;53.636;10.012;2023-07-29T06:01:12;20.00;99.90
20858;DHT22;10589;53.636;10.012;2023-07-29T06:03:37;19.90;99.90
20858;DHT22;10589;53.636;10.012;2023-07-29T06:06:03;19.90;99.90
20858;DHT22;10589;53.636;10.012;2023-07-29T06:08:28;20.00;99.90
20858;DHT22;10589;53.636;10.012;2023-07-29T06:10:54;19.90;99.90
20858;DHT22;10589;53.636;10.012;2023-07-29T06:13:20;19.80;99.90
20858;DHT22;10589;53.636;10.012;2023-07-29T06:15:45;19.70;99.90
20858;DHT22;10589;53.636;10.012;2023-07-29T06:18:11;19.90;99.90
20858;DHT22;10589;53.636;10.012;2023-07-29T06:20:37;19.90;99.90
20858;DHT22;10589;53.636;10.012;2023-07-29T06:23:03;20.00;99.90
20858;DHT22;10589;53.636;10.012;2023-07-29T06:25:29;20.20;99.90
20858;DHT22;10589;53.636;10.012;2023-07-29T06:27:54;20.30;99.90
20858;DHT22;10589;53.636;10.012;2023-07-29T06:30:20;20.40;99.90
20858;DHT22;10589;53.636;10.012;2023-07-29T06:32:45;20.30;99.90
20858;DHT22;10589;53.636;10.012;2023-07-29T06:35:11;20.20;99.90
20858;DHT22;10589;53.636;10.012;2023-07-29T06:37:37;20.10;99.90
20858;DHT22;10589;53.636;10.012;2023-07-29T06:40:02;20.10;99.90
20858;DHT22;10589;53.636;10.012;2023-07-29T06:42:28;20.10;99.90
20858;DHT22;10589;53.636;10.012;2023-07-29T06:44:54;20.20;99.90
20858;DHT22;10589;53.636;10.012;2023-07-29T06:47:19;20.10;99.90
20858;DHT22;10589;53.636;10.012;2023-07-29T06:49:46;20.10;99.90
20858;DHT22;10589;53.636;10.012;2023-07-29T06:52:11;20.10;99.90
20858;DHT22;10589;53.636;10.012;2023-07-29T06:54:37;20.00;99.90
20858;DHT22;10589;53.636;10.012;2023-07-29T06:57:02;20.00;99.90
20858;DHT22;10589;53.636;10.012;2023-07-29T06:59:28;19.90;99.90
20858;DHT22;10589;53.636;10.012;2023-07-29T07:01:54;20.00;99.90
20858;DHT22;10589;53.636;10.012;2023-07-29T07:04:19;20.10;99.90
20858;DHT22;10589;53.636;10.012;2023-07-29T07:06:45;20.10;99.90
20858;DHT22;10589;53.636;10.012;2023-07-29T07:09:11;20.10;99.90
20858;DHT22;10589;53.636;10.012;2023-07-29T07:11:36;19.90;99.90
20858;DHT22;10589;53.636;10.012;2023-07-29T07:14:02;19.80;99.90
20858;DHT22;10589;53.636;10.012;2023-07-29T07:16:27;19.80;99.90
20858;DHT22;10589;53.636;10.012;2023-07-29T07:18:56;19.70;99.90
20858;DHT22;10589;53.636;10.012;2023-07-29T07:21:22;19.70;99.90
20858;DHT22;10589;53.636;10.012;2023-07-29T07:23:49;19.60;99.90
20858;DHT22;10589;53.636;10.012;2023-07-29T07:26:15;19.70;99.90
20858;DHT22;10589;53.636;10.012;2023-07-29T07:28:41;19.70;99.90
20858;DHT22;10589;53.636;10.012;2023-07-29T07:31:06;19.70;99.90
20858;DHT22;10589;53.636;10.012;2023-07-29T07:33:32;19.70;99.90
20858;DHT22;10589;53.636;10.012;2023-07-29T07:35:57;19.70;99.90
20858;DHT22;10589;53.636;10.012;2023-07-29T07:38:23;19.70;99.90
20858;DHT22;10589;53.636;10.012;2023-07-29T07:40:55;19.80;99.90
20858;DHT22;10589;53.636;10.012;2023-07-29T07:43:22;19.90;99.90
20858;DHT22;10589;53.636;10.012;2023-07-29T07:45:48;19.70;99.90
20858;DHT22;10589;53.636;10.012;2023-07-29T07:48:14;19.70;99.90
20858;DHT22;10589;53.636;10.012;2023-07-29T07:50:39;19.70;99.90
20858;DHT22;10589;53.636;10.012;2023-07-29T07:53:05;19.60;99.90
20858;DHT22;10589;53.636;10.012;2023-07-29T07:55:31;19.70;99.90
20858;DHT22;10589;53.636;10.012;2023-07-29T07:57:56;19.60;99.90
20858;DHT22;10589;53.636;10.012;2023-07-29T08:00:22;19.60;99.90
20858;DHT22;10589;53.636;10.012;2023-07-29T08:02:47;19.50;99.90
20858;DHT22;10589;53.636;10.012;2023-07-29T08:05:13;19.40;99.90
20858;DHT22;10589;53.636;10.012;2023-07-29T08:07:39;19.30;99.90
20858;DHT22;10589;53.636;10.012;2023-07-29T08:10:05;19.30;99.90
20858;DHT22;10589;53.636;10.012;2023-07-29T08:12:30;19.30;99.90
20858;DHT22;10589;53.636;10.012;2023-07-29T08:14:56;19.30;99.90
20858;DHT22;10589;53.636;10.012;2023-07-29T08:17:22;19.30;99.90
20858;DHT22;10589;53.636;10.012;2023-07-29T08:19:47;19.30;99.90
20858;DHT22;10589;53.636;10.012;2023-07-29T08:22:13;19.50;99.90
20858;DHT22;10589;53.636;10.012;2023-07-29T08:24:38;19.50;99.90
20858;DHT22;10589;53.636;10.012;2023-07-29T08:27:04;19.50;99.90
20858;DHT22;10589;53.636;10.012;2023-07-29T08:29:30;19.50;99.90
20858;DHT22;10589;53.636;10.012;2023-07-29T08:31:55;19.40;99.90
20858;DHT22;10589;53.636;10.012;2023-07-29T08:34:21;19.50;99.90
20858;DHT22;10589;53.636;10.012;2023-07-29T08:36:47;19.40;99.90
20858;DHT22;10589;53.636;10.012;2023-07-29T08:39:12;19.40;99.90
20858;DHT22;10589;53.636;10.012;2023-07-29T08:41:46;19.40;99.90
20858;DHT22;10589;53.636;10.012;2023-07-29T08:44:20;19.50;99.90
20858;DHT22;10589;53.636;10.012;2023-07-29T08:46:48;19.50;99.90
20858;DHT22;10589;53.636;10.012;2023-07-29T08:49:14;19.60;99.90
20858;DHT22;10589;53.636;10.012;2023-07-29T08:51:42;19.70;99.90
20858;DHT22;10589;53.636;10.012;2023-07-29T08:54:09;19.80;99.90
20858;DHT22;10589;53.636;10.012;2023-07-29T08:56:36;19.90;99.90
20858;DHT22;10589;53.636;10.012;2023-07-29T08:59:01;20.10;99.90
20858;DHT22;10589;53.636;10.012;2023-07-29T09:01:28;20.30;99.90
20858;DHT22;10589;53.636;10.012;2023-07-29T09:03:56;20.40;99.90
20858;DHT22;10589;53.636;10.012;2023-07-29T09:06:22;20.50;99.90
20858;DHT22;10589;53.636;10.012;2023-07-29T09:08:50;20.60;99.90
20858;DHT22;10589;53.636;10.012;2023-07-29T09:11:16;20.60;99.90
20858;DHT22;10589;53.636;10.012;2023-07-29T09:13:43;20.80;99.90
20858;DHT22;10589;53.636;10.012;2023-07-29T09:16:10;21.00;99.90
20858;DHT22;10589;53.636;10.012;2023-07-29T09:18:35;21.10;99.90
20858;DHT22;10589;53.636;10.012;2023-07-29T09:21:01;21.20;99.90
20858;DHT22;10589;53.636;10.012;2023-07-29T09:23:27;21.40;99.90
20858;DHT22;10589;53.636;10.012;2023-07-29T09:26:01;21.60;99.90
20858;DHT22;10589;53.636;10.012;2023-07-29T09:28:35;21.60;99.90
20858;DHT22;10589;53.636;10.012;2023-07-29T09:31:01;21.70;99.90
20858;DHT22;10589;53.636;10.012;2023-07-29T09:33:27;21.80;99.90
20858;DHT22;10589;53.636;10.012;2023-07-29T09:35:53;21.90;99.90
20858;DHT22;10589;53.636;10.012;2023-07-29T09:38:29;21.90;99.90
20858;DHT22;10589;53.636;10.012;2023-07-29T09:40:56;21.90;99.90
20858;DHT22;10589;53.636;10.012;2023-07-29T09:43:29;22.00;99.90
20858;DHT22;10589;53.636;10.012;2023-07-29T09:46:03;22.00;99.90
20858;DHT22;10589;53.636;10.012;2023-07-29T09:48:33;21.90;99.90
20858;DHT22;10589;53.636;10.012;2023-07-29T09:50:59;21.90;99.90
20858;DHT22;10589;53.636;10.012;2023-07-29T09:53:25;22.00;99.90
20858;DHT22;10589;53.636;10.012;2023-07-29T09:55:53;22.30;99.90
20858;DHT22;10589;53.636;10.012;2023-07-29T09:58:28;22.50;99.90
20858;DHT22;10589;53.636;10.012;2023-07-29T10:00:54;22.80;99.90
20858;DHT22;10589;53.636;10.012;2023-07-29T10:03:21;22.80;99.90
20858;DHT22;10589;53.636;10.012;2023-07-29T10:05:47;23.10;99.90
20858;DHT22;10589;53.636;10.012;2023-07-29T10:08:14;23.30;99.90
20858;DHT22;10589;53.636;10.012;2023-07-29T10:10:42;23.50;99.90
20858;DHT22;10589;53.636;10.012;2023-07-29T10:13:09;23.70;99.90
20858;DHT22;10589;53.636;10.012;2023-07-29T10:15:35;23.90;99.90
20858;DHT22;10589;53.636;10.012;2023-07-29T10:18:02;24.10;99.90
20858;DHT22;10589;53.636;10.012;2023-07-29T10:20:30;24.10;99.90
20858;DHT22;10589;53.636;10.012;2023-07-29T10:22:56;24.30;99.90
20858;DHT22;10589;53.636;10.012;2023-07-29T10:25:24;24.40;99.90
20858;DHT22;10589;53.636;10.012;2023-07-29T10:27:56;24.40;99.90
20858;DHT22;10589;53.636;10.012;2023-07-29T10:30:24;24.20;99.90
20858;DHT22;10589;53.636;10.012;2023-07-29T10:32:50;24.10;99.90
20858;DHT22;10589;53.636;10.012;2023-07-29T10:35:17;24.00;99.90
20858;DHT22;10589;53.636;10.012;2023-07-29T10:37:44;24.00;99.90
20858;DHT22;10589;53.636;10.012;2023-07-29T10:40:11;23.80;99.90
20858;DHT22;10589;53.636;10.012;2023-07-29T10:42:38;23.80;99.90
20858;DHT22;10589;53.636;10.012;2023-07-29T10:45:24;23.90;99.90
20858;DHT22;10589;53.636;10.012;2023-07-29T10:47:49;24.00;99.90
20858;DHT22;10589;53.636;10.012;2023-07-29T10:50:20;24.30;99.90
20858;DHT22;10589;53.636;10.012;2023-07-29T10:52:50;24.50;99.90
20858;DHT22;10589;53.636;10.012;2023-07-29T10:55:25;24.40;99.90
20858;DHT22;10589;53.636;10.012;2023-07-29T10:57:51;24.20;99.90
20858;DHT22;10589;53.636;10.012;2023-07-29T11:00:19;23.70;99.90
20858;DHT22;10589;53.636;10.012;2023-07-29T11:03:01;23.40;99.90
20858;DHT22;10589;53.636;10.012;2023-07-29T11:05:45;23.10;99.90
20858;DHT22;10589;53.636;10.012;2023-07-29T11:08:23;23.00;99.90
20858;DHT22;10589;53.636;10.012;2023-07-29T11:11:06;23.10;99.90
20858;DHT22;10589;53.636;10.012;2023-07-29T11:13:34;23.40;99.90
20858;DHT22;10589;53.636;10.012;2023-07-29T11:16:00;23.60;99.90
20858;DHT22;10589;53.636;10.012;2023-07-29T11:18:28;23.80;99.90
20858;DHT22;10589;53.636;10.012;2023-07-29T11:20:55;24.10;99.90
20858;DHT22;10589;53.636;10.012;2023-07-29T11:23:30;24.40;99.90
20858;DHT22;10589;53.636;10.012;2023-07-29T11:25:56;24.70;99.90
20858;DHT22;10589;53.636;10.012;2023-07-29T11:28:22;25.10;99.90
20858;DHT22;10589;53.636;10.012;2023-07-29T11:30:49;25.20;99.90
20858;DHT22;10589;53.636;10.012;2023-07-29T11:33:18;25.40;99.90
20858;DHT22;10589;53.636;10.012;2023-07-29T11:35:44;25.50;99.90
20858;DHT22;10589;53.636;10.012;2023-07-29T11:38:18;25.50;99.90
20858;DHT22;10589;53.636;10.012;2023-07-29T11:40:57;25.50;99.90
20858;DHT22;10589;53.636;10.012;2023-07-29T11:43:23;25.70;99.90
20858;DHT22;10589;53.636;10.012;2023-07-29T11:45:49;25.70;99.90
20858;DHT22;10589;53.636;10.012;2023-07-29T11:48:14;25.90;99.90
20858;DHT22;10589;53.636;10.012;2023-07-29T11:50:40;26.00;99.90
20858;DHT22;10589;53.636;10.012;2023-07-29T11:53:06;26.00;99.90
20858;DHT22;10589;53.636;10.012;2023-07-29T11:55:33;26.00;99.90
20858;DHT22;10589;53.636;10.012;2023-07-29T11:58:01;26.20;99.90
20858;DHT22;10589;53.636;10.012;2023-07-29T12:00:27;26.40;99.90
20858;DHT22;10589;53.636;10.012;2023-07-29T12:02:53;26.40;99.90
20858;DHT22;10589;53.636;10.012;2023-07-29T12:05:20;26.30;99.90
20858;DHT22;10589;53.636;10.012;2023-07-29T12:07:47;26.30;99.90
20858;DHT22;10589;53.636;10.012;2023-07-29T12:10:13;26.50;99.90
20858;DHT22;10589;53.636;10.012;2023-07-29T12:12:49;26.30;99.90
20858;DHT22;10589;53.636;10.012;2023-07-29T12:15:28;26.40;99.90
20858;DHT22;10589;53.636;10.012;2023-07-29T12:17:58;26.40;99.90
20858;DHT22;10589;53.636;10.012;2023-07-29T12:20:25;26.60;99.90
20858;DHT22;10589;53.636;10.012;2023-07-29T12:22:55;26.60;99.90
20858;DHT22;10589;53.636;10.012;2023-07-29T12:25:20;26.70;99.90
20858;DHT22;10589;53.636;10.012;2023-07-29T12:27:47;26.80;99.90
20858;DHT22;10589;53.636;10.012;2023-07-29T12:30:13;26.90;99.90
20858;DHT22;10589;53.636;10.012;2023-07-29T12:32:45;27.20;99.90
20858;DHT22;10589;53.636;10.012;2023-07-29T12:35:11;27.50;99.90
20858;DHT22;10589;53.636;10.012;2023-07-29T12:37:37;27.70;99.90
20858;DHT22;10589;53.636;10.012;2023-07-29T12:40:04;27.60;99.90
20858;DHT22;10589;53.636;10.012;2023-07-29T12:42:30;27.40;99.90
20858;DHT22;10589;53.636;10.012;2023-07-29T12:44:56;27.70;99.90
20858;DHT22;10589;53.636;10.012;2023-07-29T12:47:21;28.20;99.90
20858;DHT22;10589;53.636;10.012;2023-07-29T12:49:47;28.70;99.90
20858;DHT22;10589;53.636;10.012;2023-07-29T12:52:13;29.30;99.90
20858;DHT22;10589;53.636;10.012;2023-07-29T12:54:38;30.10;99.90
20858;DHT22;10589;53.636;10.012;2023-07-29T12:57:06;30.90;99.90
20858;DHT22;10589;53.636;10.012;2023-07-29T12:59:31;31.80;99.90
20858;DHT22;10589;53.636;10.012;2023-07-29T13:01:57;32.60;99.90
20858;DHT22;10589;53.636;10.012;2023-07-29T13:04:22;33.10;99.90
20858;DHT22;10589;53.636;10.012;2023-07-29T13:06:48;33.60;99.90
20858;DHT22;10589;53.636;10.012;2023-07-29T13:09:14;32.60;99.90
20858;DHT22;10589;53.636;10.012;2023-07-29T13:11:39;31.60;99.90
20858;DHT22;10589;53.636;10.012;2023-07-29T13:14:05;30.10;99.90
20858;DHT22;10589;53.636;10.012;2023-07-29T13:16:30;28.80;99.90
20858;DHT22;10589;53.636;10.012;2023-07-29T13:18:57;28.30;99.90
20858;DHT22;10589;53.636;10.012;2023-07-29T13:21:23;27.60;99.90
20858;DHT22;10589;53.636;10.012;2023-07-29T13:23:49;27.50;99.90
20858;DHT22;10589;53.636;10.012;2023-07-29T13:26:14;27.20;99.90
20858;DHT22;10589;53.636;10.012;2023-07-29T13:28:40;26.90;99.90
20858;DHT22;10589;53.636;10.012;2023-07-29T13:31:06;26.90;99.90
20858;DHT22;10589;53.636;10.012;2023-07-29T13:33:31;27.50;99.90
20858;DHT22;10589;53.636;10.012;2023-07-29T13:36:00;27.70;99.90
20858;DHT22;10589;53.636;10.012;2023-07-29T13:38:25;28.40;99.90
20858;DHT22;10589;53.636;10.012;2023-07-29T13:40:51;29.10;99.90
20858;DHT22;10589;53.636;10.012;2023-07-29T13:43:16;29.20;99.90
20858;DHT22;10589;53.636;10.012;2023-07-29T13:45:42;29.10;99.90
20858;DHT22;10589;53.636;10.012;2023-07-29T13:48:08;30.10;99.90
20858;DHT22;10589;53.636;10.012;2023-07-29T13:50:33;30.70;99.90
20858;DHT22;10589;53.636;10.012;2023-07-29T13:52:59;30.20;99.90
20858;DHT22;10589;53.636;10.012;2023-07-29T13:55:24;29.60;99.90
20858;DHT22;10589;53.636;10.012;2023-07-29T13:57:51;28.80;99.90
20858;DHT22;10589;53.636;10.012;2023-07-29T14:00:17;28.90;99.90
20858;DHT22;10589;53.636;10.012;2023-07-29T14:02:43;28.70;99.90
20858;DHT22;10589;53.636;10.012;2023-07-29T14:05:09;28.50;99.90
20858;DHT22;10589;53.636;10.012;2023-07-29T14:07:34;28.50;99.90
20858;DHT22;10589;53.636;10.012;2023-07-29T14:10:00;28.80;99.90
20858;DHT22;10589;53.636;10.012;2023-07-29T14:12:26;29.60;99.90
20858;DHT22;10589;53.636;10.012;2023-07-29T14:14:51;31.00;99.90
20858;DHT22;10589;53.636;10.012;2023-07-29T14:17:17;32.10;99.90
20858;DHT22;10589;53.636;10.012;2023-07-29T14:19:42;33.50;99.90
20858;DHT22;10589;53.636;10.012;2023-07-29T14:22:08;34.50;99.90
20858;DHT22;10589;53.636;10.012;2023-07-29T14:24:34;34.90;99.90
20858;DHT22;10589;53.636;10.012;2023-07-29T14:26:59;34.60;99.90
20858;DHT22;10589;53.636;10.012;2023-07-29T14:29:25;35.40;99.90
20858;DHT22;10589;53.636;10.012;2023-07-29T14:31:51;35.90;98.20
20858;DHT22;10589;53.636;10.012;2023-07-29T14:34:16;36.10;96.00
20858;DHT22;10589;53.636;10.012;2023-07-29T14:36:42;34.90;96.00
20858;DHT22;10589;53.636;10.012;2023-07-29T14:39:08;34.40;99.10
20858;DHT22;10589;53.636;10.012;2023-07-29T14:41:33;33.70;97.70
20858;DHT22;10589;53.636;10.012;2023-07-29T14:43:59;32.10;99.50
20858;DHT22;10589;53.636;10.012;2023-07-29T14:46:25;30.90;99.90
20858;DHT22;10589;53.636;10.012;2023-07-29T14:48:50;30.40;99.90
20858;DHT22;10589;53.636;10.012;2023-07-29T14:51:16;30.30;99.90
20858;DHT22;10589;53.636;10.012;2023-07-29T14:53:42;30.50;99.90
20858;DHT22;10589;53.636;10.012;2023-07-29T14:56:08;30.00;99.90
20858;DHT22;10589;53.636;10.012;2023-07-29T14:58:34;29.50;99.90
20858;DHT22;10589;53.636;10.012;2023-07-29T15:00:59;29.90;99.90
20858;DHT22;10589;53.636;10.012;2023-07-29T15:03:25;29.90;99.90
20858;DHT22;10589;53.636;10.012;2023-07-29T15:05:50;29.80;99.90
20858;DHT22;10589;53.636;10.012;2023-07-29T15:08:16;29.80;99.90
20858;DHT22;10589;53.636;10.012;2023-07-29T15:10:49;30.00;99.90
20858;DHT22;10589;53.636;10.012;2023-07-29T15:13:15;30.30;99.90
20858;DHT22;10589;53.636;10.012;2023-07-29T15:15:42;30.70;99.90
20858;DHT22;10589;53.636;10.012;2023-07-29T15:18:08;31.30;99.90
20858;DHT22;10589;53.636;10.012;2023-07-29T15:20:34;31.90;99.90
20858;DHT22;10589;53.636;10.012;2023-07-29T15:22:59;32.30;99.90
20858;DHT22;10589;53.636;10.012;2023-07-29T15:25:25;33.00;98.60
20858;DHT22;10589;53.636;10.012;2023-07-29T15:27:50;34.00;97.60
20858;DHT22;10589;53.636;10.012;2023-07-29T15:30:16;34.50;98.10
20858;DHT22;10589;53.636;10.012;2023-07-29T15:32:42;35.30;98.80
20858;DHT22;10589;53.636;10.012;2023-07-29T15:35:08;36.30;96.50
20858;DHT22;10589;53.636;10.012;2023-07-29T15:37:33;37.40;94.50
20858;DHT22;10589;53.636;10.012;2023-07-29T15:39:59;36.60;92.00
20858;DHT22;10589;53.636;10.012;2023-07-29T15:42:25;35.30;92.20
20858;DHT22;10589;53.636;10.012;2023-07-29T15:44:51;33.90;94.40
20858;DHT22;10589;53.636;10.012;2023-07-29T15:47:16;32.40;94.70
20858;DHT22;10589;53.636;10.012;2023-07-29T15:49:44;31.30;95.60
20858;DHT22;10589;53.636;10.012;2023-07-29T15:52:10;30.10;96.70
20858;DHT22;10589;53.636;10.012;2023-07-29T15:54:36;28.90;99.90
20858;DHT22;10589;53.636;10.012;2023-07-29T15:57:02;28.10;99.90
20858;DHT22;10589;53.636;10.012;2023-07-29T15:59:29;27.20;99.90
20858;DHT22;10589;53.636;10.012;2023-07-29T16:01:54;26.50;99.90
20858;DHT22;10589;53.636;10.012;2023-07-29T16:04:21;26.00;99.90
20858;DHT22;10589;53.636;10.012;2023-07-29T16:06:46;25.60;99.90
20858;DHT22;10589;53.636;10.012;2023-07-29T16:09:12;25.20;99.90
20858;DHT22;10589;53.636;10.012;2023-07-29T16:11:37;24.90;99.90
20858;DHT22;10589;53.636;10.012;2023-07-29T16:14:03;24.60;99.90
20858;DHT22;10589;53.636;10.012;2023-07-29T16:16:28;24.40;99.90
20858;DHT22;10589;53.636;10.012;2023-07-29T16:18:54;24.20;99.90
20858;DHT22;10589;53.636;10.012;2023-07-29T16:21:20;23.80;99.90
20858;DHT22;10589;53.636;10.012;2023-07-29T16:23:45;23.20;99.90
20858;DHT22;10589;53.636;10.012;2023-07-29T16:26:11;22.50;99.90
20858;DHT22;10589;53.636;10.012;2023-07-29T16:28:37;21.70;99.90
20858;DHT22;10589;53.636;10.012;2023-07-29T16:31:03;21.30;99.90
20858;DHT22;10589;53.636;10.012;2023-07-29T16:33:29;20.80;99.90
20858;DHT22;10589;53.636;10.012;2023-07-29T16:35:54;20.60;99.90
20858;DHT22;10589;53.636;10.012;2023-07-29T16:38:20;20.10;99.90
20858;DHT22;10589;53.636;10.012;2023-07-29T16:40:45;19.60;99.90
20858;DHT22;10589;53.636;10.012;2023-07-29T16:43:12;19.30;99.90
20858;DHT22;10589;53.636;10.012;2023-07-29T16:45:37;19.10;99.90
20858;DHT22;10589;53.636;10.012;2023-07-29T16:48:03;18.80;99.90
20858;DHT22;10589;53.636;10.012;2023-07-29T16:50:29;18.70;99.90
20858;DHT22;10589;53.636;10.012;2023-07-29T16:52:54;18.60;99.90
20858;DHT22;10589;53.636;10.012;2023-07-29T16:55:22;18.50;99.90
20858;DHT22;10589;53.636;10.012;2023-07-29T16:57:48;18.50;99.90
20858;DHT22;10589;53.636;10.012;2023-07-29T17:00:14;18.50;99.90
20858;DHT22;10589;53.636;10.012;2023-07-29T17:02:39;18.50;99.90
20858;DHT22;10589;53.636;10.012;2023-07-29T17:05:05;18.60;99.90
20858;DHT22;10589;53.636;10.012;2023-07-29T17:07:32;18.70;99.90
20858;DHT22;10589;53.636;10.012;2023-07-29T17:09:58;18.70;99.90
20858;DHT22;10589;53.636;10.012;2023-07-29T17:12:24;18.80;99.90
20858;DHT22;10589;53.636;10.012;2023-07-29T17:14:49;18.70;99.90
20858;DHT22;10589;53.636;10.012;2023-07-29T17:17:15;18.70;99.90
20858;DHT22;10589;53.636;10.012;2023-07-29T17:19:41;18.80;99.90
20858;DHT22;10589;53.636;10.012;2023-07-29T17:22:07;18.90;99.90
20858;DHT22;10589;53.636;10.012;2023-07-29T17:24:32;18.90;99.90
20858;DHT22;10589;53.636;10.012;2023-07-29T17:26:58;19.00;99.90
20858;DHT22;10589;53.636;10.012;2023-07-29T17:29:25;19.00;99.90
20858;DHT22;10589;53.636;10.012;2023-07-29T17:31:50;19.00;99.90
20858;DHT22;10589;53.636;10.012;2023-07-29T17:34:16;19.10;99.90
20858;DHT22;10589;53.636;10.012;2023-07-29T17:36:42;19.10;99.90
20858;DHT22;10589;53.636;10.012;2023-07-29T17:39:07;19.00;99.90
20858;DHT22;10589;53.636;10.012;2023-07-29T17:41:33;19.00;99.90
20858;DHT22;10589;53.636;10.012;2023-07-29T17:43:59;18.90;99.90
20858;DHT22;10589;53.636;10.012;2023-07-29T17:46:24;18.90;99.90
20858;DHT22;10589;53.636;10.012;2023-07-29T17:48:50;18.90;99.90
20858;DHT22;10589;53.636;10.012;2023-07-29T17:51:16;19.00;99.90
20858;DHT22;10589;53.636;10.012;2023-07-29T17:53:41;19.00;99.90
20858;DHT22;10589;53.636;10.012;2023-07-29T17:56:07;19.20;99.90
20858;DHT22;10589;53.636;10.012;2023-07-29T17:58:36;19.30;99.90
20858;DHT22;10589;53.636;10.012;2023-07-29T18:01:05;19.30;99.90
20858;DHT22;10589;53.636;10.012;2023-07-29T18:03:30;19.40;99.90
20858;DHT22;10589;53.636;10.012;2023-07-29T18:05:56;19.50;99.90
20858;DHT22;10589;53.636;10.012;2023-07-29T18:08:22;19.40;99.90
20858;DHT22;10589;53.636;10.012;2023-07-29T18:10:48;19.40;99.90
20858;DHT22;10589;53.636;10.012;2023-07-29T18:13:13;19.40;99.90
20858;DHT22;10589;53.636;10.012;2023-07-29T18:15:39;19.40;99.90
20858;DHT22;10589;53.636;10.012;2023-07-29T18:18:05;19.40;99.90
20858;DHT22;10589;53.636;10.012;2023-07-29T18:20:30;19.30;99.90
20858;DHT22;10589;53.636;10.012;2023-07-29T18:22:56;19.10;99.90
20858;DHT22;10589;53.636;10.012;2023-07-29T18:25:27;19.10;99.90
20858;DHT22;10589;53.636;10.012;2023-07-29T18:27:53;19.00;99.90
20858;DHT22;10589;53.636;10.012;2023-07-29T18:30:18;19.00;99.90
20858;DHT22;10589;53.636;10.012;2023-07-29T18:32:44;18.90;99.90
20858;DHT22;10589;53.636;10.012;2023-07-29T18:35:10;18.90;99.90
20858;DHT22;10589;53.636;10.012;2023-07-29T18:37:51;18.90;99.90
20858;DHT22;10589;53.636;10.012;2023-07-29T18:40:18;18.80;99.90
20858;DHT22;10589;53.636;10.012;2023-07-29T18:42:45;18.80;99.90
20858;DHT22;10589;53.636;10.012;2023-07-29T18:45:10;18.80;99.90
20858;DHT22;10589;53.636;10.012;2023-07-29T18:47:36;18.70;99.90
20858;DHT22;10589;53.636;10.012;2023-07-29T18:50:01;18.70;99.90
20858;DHT22;10589;53.636;10.012;2023-07-29T18:52:29;18.80;99.90
20858;DHT22;10589;53.636;10.012;2023-07-29T18:54:55;18.70;99.90
20858;DHT22;10589;53.636;10.012;2023-07-29T18:57:24;18.70;99.90